sensor_id;sensor_type;location;lat;lon;timestamp;P1;durP1;ratioP1;P2;durP2;ratioP2
3941;SDS011;1985;48.592;8.850;2024-03-06T00:00:54;12.35;;;2.40;;
3941;SDS011;1985;48.592;8.850;2024-03-06T00:03:20;13.70;;;3.60;;
3941;SDS011;1985;48.592;8.850;2024-03-06T00:05:47;10.77;;;2.90;;
3941;SDS011;1985;48.592;8.850;2024-03-06T00:08:12;13.40;;;3.80;;
3941;SDS011;1985;48.592;8.850;2024-03-06T00:10:38;12.30;;;3.40;;
3941;SDS011;1985;48.592;8.850;2024-03-06T00:13:05;12.60;;;3.88;;
3941;SDS011;1985;48.592;8.850;2024-03-06T00:15:31;12.70;;;3.67;;
3941;SDS011;1985;48.592;8.850;2024-03-06T00:17:56;13.77;;;4.37;;
3941;SDS011;1985;48.592;8.850;2024-03-06T00:20:23;11.05;;;2.72;;
3941;SDS011;1985;48.592;8.850;2024-03-06T00:22:49;11.80;;;2.80;;
3941;SDS011;1985;48.592;8.850;2024-03-06T00:25:14;16.80;;;3.87;;
3941;SDS011;1985;48.592;8.850;2024-03-06T00:27:40;11.52;;;3.28;;
3941;SDS011;1985;48.592;8.850;2024-03-06T00:30:06;11.60;;;2.90;;
3941;SDS011;1985;48.592;8.850;2024-03-06T00:32:32;14.98;;;2.90;;
3941;SDS011;1985;48.592;8.850;2024-03-06T00:34:58;11.90;;;2.60;;
3941;SDS011;1985;48.592;8.850;2024-03-06T00:37:23;12.45;;;2.72;;
3941;SDS011;1985;48.592;8.850;2024-03-06T00:39:49;12.30;;;2.80;;
3941;SDS011;1985;48.592;8.850;2024-03-06T00:42:15;12.70;;;3.00;;
3941;SDS011;1985;48.592;8.850;2024-03-06T00:44:40;11.10;;;2.85;;
3941;SDS011;1985;48.592;8.850;2024-03-06T00:47:06;12.55;;;2.90;;
3941;SDS011;1985;48.592;8.850;2024-03-06T00:49:32;10.70;;;2.50;;
3941;SDS011;1985;48.592;8.850;2024-03-06T00:51:57;11.38;;;2.55;;
3941;SDS011;1985;48.592;8.850;2024-03-06T00:54:23;10.70;;;2.60;;
3941;SDS011;1985;48.592;8.850;2024-03-06T00:56:49;11.50;;;2.70;;
3941;SDS011;1985;48.592;8.850;2024-03-06T00:59:14;13.65;;;2.50;;
3941;SDS011;1985;48.592;8.850;2024-03-06T01:01:40;12.90;;;3.10;;
3941;SDS011;1985;48.592;8.850;2024-03-06T01:04:06;11.23;;;2.50;;
3941;SDS011;1985;48.592;8.850;2024-03-06T01:06:32;15.05;;;2.65;;
3941;SDS011;1985;48.592;8.850;2024-03-06T01:08:58;10.52;;;2.50;;
3941;SDS011;1985;48.592;8.850;2024-03-06T01:11:24;12.32;;;2.40;;
3941;SDS011;1985;48.592;8.850;2024-03-06T01:13:51;10.85;;;2.40;;
3941;SDS011;1985;48.592;8.850;2024-03-06T01:16:17;10.27;;;2.47;;
3941;SDS011;1985;48.592;8.850;2024-03-06T01:18:43;10.43;;;2.55;;
3941;SDS011;1985;48.592;8.850;2024-03-06T01:21:08;12.70;;;2.60;;
3941;SDS011;1985;48.592;8.850;2024-03-06T01:23:34;9.63;;;2.13;;
3941;SDS011;1985;48.592;8.850;2024-03-06T01:26:00;9.70;;;2.20;;
3941;SDS011;1985;48.592;8.850;2024-03-06T01:28:25;11.27;;;2.40;;
3941;SDS011;1985;48.592;8.850;2024-03-06T01:30:51;11.20;;;2.60;;
3941;SDS011;1985;48.592;8.850;2024-03-06T01:33:17;10.90;;;2.60;;
3941;SDS011;1985;48.592;8.850;2024-03-06T01:35:42;10.13;;;2.43;;
3941;SDS011;1985;48.592;8.850;2024-03-06T01:38:08;10.57;;;2.70;;
3941;SDS011;1985;48.592;8.850;2024-03-06T01:40:35;13.02;;;3.10;;
3941;SDS011;1985;48.592;8.850;2024-03-06T01:43:00;9.80;;;2.40;;
3941;SDS011;1985;48.592;8.850;2024-03-06T01:45:29;9.75;;;2.30;;
3941;SDS011;1985;48.592;8.850;2024-03-06T01:47:56;11.35;;;2.35;;
3941;SDS011;1985;48.592;8.850;2024-03-06T01:50:21;13.63;;;2.60;;
3941;SDS011;1985;48.592;8.850;2024-03-06T01:52:47;10.10;;;2.60;;
3941;SDS011;1985;48.592;8.850;2024-03-06T01:55:15;12.38;;;2.50;;
3941;SDS011;1985;48.592;8.850;2024-03-06T01:57:41;10.25;;;2.60;;
3941;SDS011;1985;48.592;8.850;2024-03-06T02:00:08;13.27;;;2.93;;
3941;SDS011;1985;48.592;8.850;2024-03-06T02:02:39;10.20;;;2.30;;
3941;SDS011;1985;48.592;8.850;2024-03-06T02:05:06;10.68;;;2.10;;
3941;SDS011;1985;48.592;8.850;2024-03-06T02:07:32;11.83;;;2.47;;
3941;SDS011;1985;48.592;8.850;2024-03-06T02:09:58;10.25;;;2.40;;
3941;SDS011;1985;48.592;8.850;2024-03-06T02:12:24;11.15;;;2.72;;
3941;SDS011;1985;48.592;8.850;2024-03-06T02:14:50;12.50;;;2.57;;
3941;SDS011;1985;48.592;8.850;2024-03-06T02:17:16;9.73;;;2.10;;
3941;SDS011;1985;48.592;8.850;2024-03-06T02:19:44;10.48;;;2.10;;
3941;SDS011;1985;48.592;8.850;2024-03-06T02:22:10;10.03;;;2.60;;
3941;SDS011;1985;48.592;8.850;2024-03-06T02:24:36;9.90;;;2.00;;
3941;SDS011;1985;48.592;8.850;2024-03-06T02:27:03;10.40;;;2.17;;
3941;SDS011;1985;48.592;8.850;2024-03-06T02:29:32;10.57;;;2.38;;
3941;SDS011;1985;48.592;8.850;2024-03-06T02:32:00;11.60;;;2.53;;
3941;SDS011;1985;48.592;8.850;2024-03-06T02:34:29;9.80;;;2.50;;
3941;SDS011;1985;48.592;8.850;2024-03-06T02:37:02;12.57;;;2.55;;
3941;SDS011;1985;48.592;8.850;2024-03-06T02:39:28;10.52;;;2.40;;
3941;SDS011;1985;48.592;8.850;2024-03-06T02:41:53;10.90;;;2.40;;
3941;SDS011;1985;48.592;8.850;2024-03-06T02:44:19;10.00;;;2.40;;
3941;SDS011;1985;48.592;8.850;2024-03-06T02:46:48;12.75;;;2.50;;
3941;SDS011;1985;48.592;8.850;2024-03-06T02:49:14;10.82;;;2.17;;
3941;SDS011;1985;48.592;8.850;2024-03-06T02:51:40;10.40;;;2.60;;
3941;SDS011;1985;48.592;8.850;2024-03-06T02:54:06;10.20;;;2.50;;
3941;SDS011;1985;48.592;8.850;2024-03-06T02:56:32;16.33;;;2.67;;
3941;SDS011;1985;48.592;8.850;2024-03-06T02:58:57;11.53;;;2.70;;
3941;SDS011;1985;48.592;8.850;2024-03-06T03:01:23;10.45;;;2.03;;
3941;SDS011;1985;48.592;8.850;2024-03-06T03:03:49;10.80;;;2.35;;
3941;SDS011;1985;48.592;8.850;2024-03-06T03:06:16;10.80;;;2.10;;
3941;SDS011;1985;48.592;8.850;2024-03-06T03:08:42;11.87;;;2.50;;
3941;SDS011;1985;48.592;8.850;2024-03-06T03:11:07;11.83;;;2.50;;
3941;SDS011;1985;48.592;8.850;2024-03-06T03:13:33;10.77;;;2.30;;
3941;SDS011;1985;48.592;8.850;2024-03-06T03:15:59;10.80;;;2.40;;
3941;SDS011;1985;48.592;8.850;2024-03-06T03:18:24;12.00;;;2.80;;
3941;SDS011;1985;48.592;8.850;2024-03-06T03:20:50;11.90;;;2.60;;
3941;SDS011;1985;48.592;8.850;2024-03-06T03:23:16;10.73;;;2.23;;
3941;SDS011;1985;48.592;8.850;2024-03-06T03:25:47;10.90;;;2.72;;
3941;SDS011;1985;48.592;8.850;2024-03-06T03:28:14;9.60;;;2.38;;
3941;SDS011;1985;48.592;8.850;2024-03-06T03:30:39;10.23;;;2.50;;
3941;SDS011;1985;48.592;8.850;2024-03-06T03:33:05;13.20;;;2.80;;
3941;SDS011;1985;48.592;8.850;2024-03-06T03:35:31;13.32;;;2.90;;
3941;SDS011;1985;48.592;8.850;2024-03-06T03:37:57;11.43;;;2.58;;
3941;SDS011;1985;48.592;8.850;2024-03-06T03:40:22;10.20;;;2.30;;
3941;SDS011;1985;48.592;8.850;2024-03-06T03:42:48;11.68;;;2.90;;
3941;SDS011;1985;48.592;8.850;2024-03-06T03:45:14;11.00;;;2.67;;
3941;SDS011;1985;48.592;8.850;2024-03-06T03:47:39;12.05;;;2.60;;
3941;SDS011;1985;48.592;8.850;2024-03-06T03:50:08;12.73;;;2.50;;
3941;SDS011;1985;48.592;8.850;2024-03-06T03:52:34;12.23;;;2.80;;
3941;SDS011;1985;48.592;8.850;2024-03-06T03:55:00;12.80;;;2.60;;
3941;SDS011;1985;48.592;8.850;2024-03-06T03:57:26;11.93;;;2.50;;
3941;SDS011;1985;48.592;8.850;2024-03-06T03:59:52;10.70;;;2.50;;
3941;SDS011;1985;48.592;8.850;2024-03-06T04:02:18;11.63;;;2.60;;
3941;SDS011;1985;48.592;8.850;2024-03-06T04:04:44;10.40;;;2.70;;
3941;SDS011;1985;48.592;8.850;2024-03-06T04:07:10;10.60;;;2.47;;
3941;SDS011;1985;48.592;8.850;2024-03-06T04:09:35;9.90;;;2.35;;
3941;SDS011;1985;48.592;8.850;2024-03-06T04:12:02;10.95;;;2.40;;
3941;SDS011;1985;48.592;8.850;2024-03-06T04:14:28;11.45;;;2.47;;
3941;SDS011;1985;48.592;8.850;2024-03-06T04:16:55;11.65;;;2.40;;
3941;SDS011;1985;48.592;8.850;2024-03-06T04:19:21;10.50;;;2.45;;
3941;SDS011;1985;48.592;8.850;2024-03-06T04:21:46;10.38;;;2.30;;
3941;SDS011;1985;48.592;8.850;2024-03-06T04:24:12;12.60;;;2.37;;
3941;SDS011;1985;48.592;8.850;2024-03-06T04:26:38;11.95;;;2.80;;
3941;SDS011;1985;48.592;8.850;2024-03-06T04:29:03;10.85;;;2.75;;
3941;SDS011;1985;48.592;8.850;2024-03-06T04:31:29;11.40;;;2.53;;
3941;SDS011;1985;48.592;8.850;2024-03-06T04:33:55;11.38;;;2.88;;
3941;SDS011;1985;48.592;8.850;2024-03-06T04:36:20;12.40;;;2.57;;
3941;SDS011;1985;48.592;8.850;2024-03-06T04:38:46;9.70;;;2.33;;
3941;SDS011;1985;48.592;8.850;2024-03-06T04:41:12;10.38;;;2.60;;
3941;SDS011;1985;48.592;8.850;2024-03-06T04:43:37;9.93;;;2.60;;
3941;SDS011;1985;48.592;8.850;2024-03-06T04:46:03;9.60;;;2.40;;
3941;SDS011;1985;48.592;8.850;2024-03-06T04:48:29;12.52;;;2.63;;
3941;SDS011;1985;48.592;8.850;2024-03-06T04:50:55;10.23;;;2.47;;
3941;SDS011;1985;48.592;8.850;2024-03-06T04:53:20;11.90;;;2.90;;
3941;SDS011;1985;48.592;8.850;2024-03-06T04:55:46;12.13;;;2.78;;
3941;SDS011;1985;48.592;8.850;2024-03-06T04:58:12;10.80;;;3.00;;
3941;SDS011;1985;48.592;8.850;2024-03-06T05:00:38;12.30;;;3.20;;
3941;SDS011;1985;48.592;8.850;2024-03-06T05:03:04;10.25;;;2.85;;
3941;SDS011;1985;48.592;8.850;2024-03-06T05:05:32;11.75;;;2.75;;
3941;SDS011;1985;48.592;8.850;2024-03-06T05:07:58;10.77;;;2.70;;
3941;SDS011;1985;48.592;8.850;2024-03-06T05:10:24;13.00;;;3.20;;
3941;SDS011;1985;48.592;8.850;2024-03-06T05:12:51;10.40;;;3.20;;
3941;SDS011;1985;48.592;8.850;2024-03-06T05:15:16;10.40;;;2.50;;
3941;SDS011;1985;48.592;8.850;2024-03-06T05:17:44;10.48;;;2.60;;
3941;SDS011;1985;48.592;8.850;2024-03-06T05:20:10;10.23;;;2.53;;
3941;SDS011;1985;48.592;8.850;2024-03-06T05:22:36;10.37;;;2.80;;
3941;SDS011;1985;48.592;8.850;2024-03-06T05:25:01;11.57;;;2.50;;
3941;SDS011;1985;48.592;8.850;2024-03-06T05:27:28;12.30;;;3.00;;
3941;SDS011;1985;48.592;8.850;2024-03-06T05:29:53;11.70;;;3.10;;
3941;SDS011;1985;48.592;8.850;2024-03-06T05:32:19;11.05;;;2.85;;
3941;SDS011;1985;48.592;8.850;2024-03-06T05:34:45;11.27;;;2.75;;
3941;SDS011;1985;48.592;8.850;2024-03-06T05:37:11;11.40;;;3.00;;
3941;SDS011;1985;48.592;8.850;2024-03-06T05:39:36;13.30;;;3.25;;
3941;SDS011;1985;48.592;8.850;2024-03-06T05:42:07;13.47;;;3.40;;
3941;SDS011;1985;48.592;8.850;2024-03-06T05:44:33;11.65;;;3.30;;
3941;SDS011;1985;48.592;8.850;2024-03-06T05:46:59;12.13;;;3.25;;
3941;SDS011;1985;48.592;8.850;2024-03-06T05:49:26;11.67;;;3.03;;
3941;SDS011;1985;48.592;8.850;2024-03-06T05:51:52;14.90;;;3.27;;
3941;SDS011;1985;48.592;8.850;2024-03-06T05:54:19;12.30;;;3.30;;
3941;SDS011;1985;48.592;8.850;2024-03-06T05:56:47;10.20;;;2.85;;
3941;SDS011;1985;48.592;8.850;2024-03-06T05:59:13;14.20;;;3.28;;
3941;SDS011;1985;48.592;8.850;2024-03-06T06:01:40;15.00;;;4.40;;
3941;SDS011;1985;48.592;8.850;2024-03-06T06:04:07;13.37;;;3.30;;
3941;SDS011;1985;48.592;8.850;2024-03-06T06:06:34;11.85;;;3.40;;
3941;SDS011;1985;48.592;8.850;2024-03-06T06:09:00;12.75;;;3.60;;
3941;SDS011;1985;48.592;8.850;2024-03-06T06:11:25;11.90;;;3.20;;
3941;SDS011;1985;48.592;8.850;2024-03-06T06:13:51;10.80;;;3.37;;
3941;SDS011;1985;48.592;8.850;2024-03-06T06:16:17;12.90;;;3.00;;
3941;SDS011;1985;48.592;8.850;2024-03-06T06:18:43;11.93;;;3.90;;
3941;SDS011;1985;48.592;8.850;2024-03-06T06:21:08;12.03;;;2.73;;
3941;SDS011;1985;48.592;8.850;2024-03-06T06:23:34;12.67;;;3.07;;
3941;SDS011;1985;48.592;8.850;2024-03-06T06:26:00;11.82;;;3.17;;
3941;SDS011;1985;48.592;8.850;2024-03-06T06:28:26;13.43;;;3.22;;
3941;SDS011;1985;48.592;8.850;2024-03-06T06:30:51;12.60;;;3.47;;
3941;SDS011;1985;48.592;8.850;2024-03-06T06:33:18;10.93;;;3.07;;
3941;SDS011;1985;48.592;8.850;2024-03-06T06:35:44;11.15;;;3.13;;
3941;SDS011;1985;48.592;8.850;2024-03-06T06:38:10;15.48;;;2.95;;
3941;SDS011;1985;48.592;8.850;2024-03-06T06:40:35;11.90;;;3.20;;
3941;SDS011;1985;48.592;8.850;2024-03-06T06:43:01;12.33;;;2.90;;
3941;SDS011;1985;48.592;8.850;2024-03-06T06:45:27;11.90;;;3.08;;
3941;SDS011;1985;48.592;8.850;2024-03-06T06:47:53;13.43;;;3.30;;
3941;SDS011;1985;48.592;8.850;2024-03-06T06:50:18;12.13;;;2.83;;
3941;SDS011;1985;48.592;8.850;2024-03-06T06:52:47;13.03;;;3.20;;
3941;SDS011;1985;48.592;8.850;2024-03-06T06:55:13;11.90;;;3.00;;
3941;SDS011;1985;48.592;8.850;2024-03-06T06:57:39;13.90;;;3.00;;
3941;SDS011;1985;48.592;8.850;2024-03-06T07:00:05;12.05;;;3.30;;
3941;SDS011;1985;48.592;8.850;2024-03-06T07:02:42;13.57;;;3.20;;
3941;SDS011;1985;48.592;8.850;2024-03-06T07:05:08;13.45;;;3.28;;
3941;SDS011;1985;48.592;8.850;2024-03-06T07:07:35;12.32;;;3.30;;
3941;SDS011;1985;48.592;8.850;2024-03-06T07:10:01;11.90;;;3.15;;
3941;SDS011;1985;48.592;8.850;2024-03-06T07:12:28;12.45;;;3.50;;
3941;SDS011;1985;48.592;8.850;2024-03-06T07:14:54;13.10;;;3.30;;
3941;SDS011;1985;48.592;8.850;2024-03-06T07:17:19;11.07;;;3.30;;
3941;SDS011;1985;48.592;8.850;2024-03-06T07:19:45;11.90;;;3.03;;
3941;SDS011;1985;48.592;8.850;2024-03-06T07:22:10;14.13;;;3.30;;
3941;SDS011;1985;48.592;8.850;2024-03-06T07:24:36;12.77;;;3.33;;
3941;SDS011;1985;48.592;8.850;2024-03-06T07:27:02;11.93;;;3.30;;
3941;SDS011;1985;48.592;8.850;2024-03-06T07:29:28;12.00;;;3.30;;
3941;SDS011;1985;48.592;8.850;2024-03-06T07:31:53;12.30;;;3.07;;
3941;SDS011;1985;48.592;8.850;2024-03-06T07:34:19;11.80;;;3.40;;
3941;SDS011;1985;48.592;8.850;2024-03-06T07:36:48;18.60;;;7.45;;
3941;SDS011;1985;48.592;8.850;2024-03-06T07:39:18;11.25;;;3.35;;
3941;SDS011;1985;48.592;8.850;2024-03-06T07:41:44;12.38;;;3.58;;
3941;SDS011;1985;48.592;8.850;2024-03-06T07:44:10;12.15;;;3.53;;
3941;SDS011;1985;48.592;8.850;2024-03-06T07:46:36;12.47;;;3.87;;
3941;SDS011;1985;48.592;8.850;2024-03-06T07:49:02;14.90;;;3.60;;
3941;SDS011;1985;48.592;8.850;2024-03-06T07:51:31;13.48;;;3.40;;
3941;SDS011;1985;48.592;8.850;2024-03-06T07:53:57;11.27;;;3.35;;
3941;SDS011;1985;48.592;8.850;2024-03-06T07:56:24;13.50;;;3.97;;
3941;SDS011;1985;48.592;8.850;2024-03-06T07:58:53;11.88;;;3.42;;
3941;SDS011;1985;48.592;8.850;2024-03-06T08:01:19;13.43;;;3.65;;
3941;SDS011;1985;48.592;8.850;2024-03-06T08:03:48;12.10;;;3.70;;
3941;SDS011;1985;48.592;8.850;2024-03-06T08:06:14;11.93;;;3.33;;
3941;SDS011;1985;48.592;8.850;2024-03-06T08:08:41;12.98;;;3.28;;
3941;SDS011;1985;48.592;8.850;2024-03-06T08:11:09;10.55;;;2.83;;
3941;SDS011;1985;48.592;8.850;2024-03-06T08:13:38;10.75;;;2.83;;
3941;SDS011;1985;48.592;8.850;2024-03-06T08:16:04;13.77;;;3.20;;
3941;SDS011;1985;48.592;8.850;2024-03-06T08:18:32;13.05;;;3.30;;
3941;SDS011;1985;48.592;8.850;2024-03-06T08:20:58;11.00;;;2.60;;
3941;SDS011;1985;48.592;8.850;2024-03-06T08:23:24;12.37;;;2.97;;
3941;SDS011;1985;48.592;8.850;2024-03-06T08:25:50;12.52;;;3.10;;
3941;SDS011;1985;48.592;8.850;2024-03-06T08:28:16;13.40;;;2.78;;
3941;SDS011;1985;48.592;8.850;2024-03-06T08:30:42;11.25;;;3.05;;
3941;SDS011;1985;48.592;8.850;2024-03-06T08:33:09;10.57;;;2.70;;
3941;SDS011;1985;48.592;8.850;2024-03-06T08:35:34;10.90;;;2.80;;
3941;SDS011;1985;48.592;8.850;2024-03-06T08:38:00;13.73;;;2.70;;
3941;SDS011;1985;48.592;8.850;2024-03-06T08:40:26;11.70;;;2.50;;
3941;SDS011;1985;48.592;8.850;2024-03-06T08:42:53;12.25;;;3.10;;
3941;SDS011;1985;48.592;8.850;2024-03-06T08:45:19;11.50;;;2.40;;
3941;SDS011;1985;48.592;8.850;2024-03-06T08:47:45;11.50;;;2.40;;
3941;SDS011;1985;48.592;8.850;2024-03-06T08:50:15;10.73;;;2.40;;
3941;SDS011;1985;48.592;8.850;2024-03-06T08:52:41;12.70;;;2.92;;
3941;SDS011;1985;48.592;8.850;2024-03-06T08:55:07;12.43;;;2.60;;
3941;SDS011;1985;48.592;8.850;2024-03-06T08:57:34;10.70;;;2.20;;
3941;SDS011;1985;48.592;8.850;2024-03-06T09:00:00;12.02;;;2.15;;
3941;SDS011;1985;48.592;8.850;2024-03-06T09:02:27;13.38;;;2.97;;
3941;SDS011;1985;48.592;8.850;2024-03-06T09:04:53;9.30;;;2.17;;
3941;SDS011;1985;48.592;8.850;2024-03-06T09:07:19;9.30;;;2.20;;
3941;SDS011;1985;48.592;8.850;2024-03-06T09:09:45;11.13;;;2.47;;
3941;SDS011;1985;48.592;8.850;2024-03-06T09:12:11;13.27;;;2.45;;
3941;SDS011;1985;48.592;8.850;2024-03-06T09:14:37;11.10;;;2.40;;
3941;SDS011;1985;48.592;8.850;2024-03-06T09:17:03;10.57;;;2.50;;
3941;SDS011;1985;48.592;8.850;2024-03-06T09:19:30;13.45;;;2.58;;
3941;SDS011;1985;48.592;8.850;2024-03-06T09:21:57;11.88;;;2.47;;
3941;SDS011;1985;48.592;8.850;2024-03-06T09:24:23;11.70;;;2.33;;
3941;SDS011;1985;48.592;8.850;2024-03-06T09:26:53;11.57;;;2.40;;
3941;SDS011;1985;48.592;8.850;2024-03-06T09:29:19;12.33;;;2.63;;
3941;SDS011;1985;48.592;8.850;2024-03-06T09:31:45;9.80;;;2.20;;
3941;SDS011;1985;48.592;8.850;2024-03-06T09:34:12;9.40;;;2.10;;
3941;SDS011;1985;48.592;8.850;2024-03-06T09:36:44;10.82;;;2.30;;
3941;SDS011;1985;48.592;8.850;2024-03-06T09:39:15;9.93;;;2.10;;
3941;SDS011;1985;48.592;8.850;2024-03-06T09:41:42;9.40;;;1.80;;
3941;SDS011;1985;48.592;8.850;2024-03-06T09:44:12;10.10;;;2.20;;
3941;SDS011;1985;48.592;8.850;2024-03-06T09:46:45;9.30;;;2.00;;
3941;SDS011;1985;48.592;8.850;2024-03-06T09:49:13;9.82;;;2.17;;
3941;SDS011;1985;48.592;8.850;2024-03-06T09:51:45;8.82;;;1.92;;
3941;SDS011;1985;48.592;8.850;2024-03-06T09:54:12;12.07;;;2.63;;
3941;SDS011;1985;48.592;8.850;2024-03-06T09:56:40;10.13;;;2.13;;
3941;SDS011;1985;48.592;8.850;2024-03-06T09:59:08;11.90;;;2.20;;
3941;SDS011;1985;48.592;8.850;2024-03-06T10:01:34;10.90;;;2.70;;
3941;SDS011;1985;48.592;8.850;2024-03-06T10:06:44;10.40;;;2.40;;
3941;SDS011;1985;48.592;8.850;2024-03-06T10:09:11;11.20;;;2.50;;
3941;SDS011;1985;48.592;8.850;2024-03-06T10:11:40;11.60;;;3.20;;
3941;SDS011;1985;48.592;8.850;2024-03-06T10:14:07;10.90;;;3.10;;
3941;SDS011;1985;48.592;8.850;2024-03-06T10:16:36;11.07;;;2.75;;
3941;SDS011;1985;48.592;8.850;2024-03-06T10:19:17;12.10;;;2.75;;
3941;SDS011;1985;48.592;8.850;2024-03-06T10:21:46;10.50;;;2.70;;
3941;SDS011;1985;48.592;8.850;2024-03-06T10:24:17;10.75;;;2.50;;
3941;SDS011;1985;48.592;8.850;2024-03-06T10:26:48;10.40;;;3.00;;
3941;SDS011;1985;48.592;8.850;2024-03-06T10:29:17;11.93;;;3.30;;
3941;SDS011;1985;48.592;8.850;2024-03-06T10:31:53;10.90;;;3.00;;
3941;SDS011;1985;48.592;8.850;2024-03-06T10:34:20;15.63;;;3.65;;
3941;SDS011;1985;48.592;8.850;2024-03-06T10:36:52;13.27;;;3.92;;
3941;SDS011;1985;48.592;8.850;2024-03-06T10:39:20;11.98;;;3.70;;
3941;SDS011;1985;48.592;8.850;2024-03-06T10:41:48;14.07;;;3.95;;
3941;SDS011;1985;48.592;8.850;2024-03-06T10:44:23;11.13;;;4.15;;
3941;SDS011;1985;48.592;8.850;2024-03-06T10:47:00;13.47;;;4.60;;
3941;SDS011;1985;48.592;8.850;2024-03-06T10:49:27;12.15;;;4.60;;
3941;SDS011;1985;48.592;8.850;2024-03-06T10:52:12;11.80;;;4.75;;
3941;SDS011;1985;48.592;8.850;2024-03-06T10:54:41;12.40;;;4.50;;
3941;SDS011;1985;48.592;8.850;2024-03-06T10:57:11;14.55;;;4.72;;
3941;SDS011;1985;48.592;8.850;2024-03-06T10:59:37;15.07;;;5.47;;
3941;SDS011;1985;48.592;8.850;2024-03-06T11:02:03;14.98;;;5.30;;
3941;SDS011;1985;48.592;8.850;2024-03-06T11:04:29;14.23;;;5.38;;
3941;SDS011;1985;48.592;8.850;2024-03-06T11:06:59;12.18;;;4.65;;
3941;SDS011;1985;48.592;8.850;2024-03-06T11:09:27;14.55;;;5.38;;
3941;SDS011;1985;48.592;8.850;2024-03-06T11:11:54;13.07;;;5.28;;
3941;SDS011;1985;48.592;8.850;2024-03-06T11:14:23;12.97;;;5.10;;
3941;SDS011;1985;48.592;8.850;2024-03-06T11:17:08;14.50;;;5.10;;
3941;SDS011;1985;48.592;8.850;2024-03-06T11:28:15;15.88;;;6.00;;
3941;SDS011;1985;48.592;8.850;2024-03-06T11:30:56;14.50;;;6.20;;
3941;SDS011;1985;48.592;8.850;2024-03-06T11:33:40;14.70;;;5.50;;
3941;SDS011;1985;48.592;8.850;2024-03-06T11:36:24;13.32;;;5.10;;
3941;SDS011;1985;48.592;8.850;2024-03-06T11:44:08;13.93;;;5.30;;
3941;SDS011;1985;48.592;8.850;2024-03-06T11:49:19;15.02;;;5.82;;
3941;SDS011;1985;48.592;8.850;2024-03-06T11:51:52;13.00;;;5.03;;
3941;SDS011;1985;48.592;8.850;2024-03-06T11:54:19;15.70;;;5.40;;
3941;SDS011;1985;48.592;8.850;2024-03-06T11:56:54;16.50;;;5.40;;
3941;SDS011;1985;48.592;8.850;2024-03-06T11:59:25;16.05;;;5.93;;
3941;SDS011;1985;48.592;8.850;2024-03-06T12:01:56;14.60;;;5.32;;
3941;SDS011;1985;48.592;8.850;2024-03-06T12:04:22;14.60;;;5.63;;
3941;SDS011;1985;48.592;8.850;2024-03-06T12:06:49;16.73;;;6.57;;
3941;SDS011;1985;48.592;8.850;2024-03-06T12:09:15;14.05;;;5.63;;
3941;SDS011;1985;48.592;8.850;2024-03-06T12:11:42;16.60;;;6.40;;
3941;SDS011;1985;48.592;8.850;2024-03-06T12:14:12;14.65;;;6.40;;
3941;SDS011;1985;48.592;8.850;2024-03-06T12:16:39;14.52;;;5.85;;
3941;SDS011;1985;48.592;8.850;2024-03-06T12:19:05;17.47;;;7.30;;
3941;SDS011;1985;48.592;8.850;2024-03-06T12:21:31;17.05;;;7.55;;
3941;SDS011;1985;48.592;8.850;2024-03-06T12:24:09;17.15;;;7.00;;
3941;SDS011;1985;48.592;8.850;2024-03-06T12:26:36;17.23;;;7.20;;
3941;SDS011;1985;48.592;8.850;2024-03-06T12:31:37;18.60;;;7.80;;
3941;SDS011;1985;48.592;8.850;2024-03-06T12:34:07;17.67;;;7.93;;
3941;SDS011;1985;48.592;8.850;2024-03-06T12:36:34;18.23;;;7.97;;
3941;SDS011;1985;48.592;8.850;2024-03-06T12:39:04;18.33;;;7.60;;
3941;SDS011;1985;48.592;8.850;2024-03-06T12:41:40;17.00;;;7.78;;
3941;SDS011;1985;48.592;8.850;2024-03-06T12:44:06;15.98;;;7.18;;
3941;SDS011;1985;48.592;8.850;2024-03-06T12:46:32;17.50;;;8.13;;
3941;SDS011;1985;48.592;8.850;2024-03-06T12:48:58;20.88;;;8.82;;
3941;SDS011;1985;48.592;8.850;2024-03-06T12:51:23;20.33;;;9.20;;
3941;SDS011;1985;48.592;8.850;2024-03-06T12:53:49;18.37;;;8.50;;
3941;SDS011;1985;48.592;8.850;2024-03-06T12:56:16;19.15;;;8.60;;
3941;SDS011;1985;48.592;8.850;2024-03-06T12:58:42;18.75;;;9.20;;
3941;SDS011;1985;48.592;8.850;2024-03-06T13:01:08;17.27;;;7.50;;
3941;SDS011;1985;48.592;8.850;2024-03-06T13:03:34;18.70;;;9.15;;
3941;SDS011;1985;48.592;8.850;2024-03-06T13:05:59;21.03;;;9.80;;
3941;SDS011;1985;48.592;8.850;2024-03-06T13:08:25;21.07;;;8.60;;
3941;SDS011;1985;48.592;8.850;2024-03-06T13:10:51;19.50;;;9.50;;
3941;SDS011;1985;48.592;8.850;2024-03-06T13:13:17;20.52;;;8.73;;
3941;SDS011;1985;48.592;8.850;2024-03-06T13:15:42;20.47;;;9.10;;
3941;SDS011;1985;48.592;8.850;2024-03-06T13:18:09;18.55;;;9.20;;
3941;SDS011;1985;48.592;8.850;2024-03-06T13:20:35;18.50;;;8.50;;
3941;SDS011;1985;48.592;8.850;2024-03-06T13:23:00;18.47;;;7.77;;
3941;SDS011;1985;48.592;8.850;2024-03-06T13:25:26;18.48;;;8.45;;
3941;SDS011;1985;48.592;8.850;2024-03-06T13:27:52;17.63;;;8.03;;
3941;SDS011;1985;48.592;8.850;2024-03-06T13:30:18;20.33;;;7.83;;
3941;SDS011;1985;48.592;8.850;2024-03-06T13:32:44;18.33;;;8.93;;
3941;SDS011;1985;48.592;8.850;2024-03-06T13:35:12;19.93;;;9.50;;
3941;SDS011;1985;48.592;8.850;2024-03-06T13:37:40;21.35;;;8.80;;
3941;SDS011;1985;48.592;8.850;2024-03-06T13:40:07;22.52;;;9.48;;
3941;SDS011;1985;48.592;8.850;2024-03-06T13:42:34;19.30;;;8.45;;
3941;SDS011;1985;48.592;8.850;2024-03-06T13:45:00;20.67;;;9.40;;
3941;SDS011;1985;48.592;8.850;2024-03-06T13:47:26;17.00;;;7.65;;
3941;SDS011;1985;48.592;8.850;2024-03-06T13:49:52;19.70;;;8.90;;
3941;SDS011;1985;48.592;8.850;2024-03-06T13:52:20;19.92;;;8.30;;
3941;SDS011;1985;48.592;8.850;2024-03-06T13:54:46;17.83;;;8.10;;
3941;SDS011;1985;48.592;8.850;2024-03-06T13:57:15;17.10;;;8.77;;
3941;SDS011;1985;48.592;8.850;2024-03-06T13:59:41;18.60;;;8.02;;
3941;SDS011;1985;48.592;8.850;2024-03-06T14:02:07;20.00;;;9.05;;
3941;SDS011;1985;48.592;8.850;2024-03-06T14:04:33;19.83;;;8.60;;
3941;SDS011;1985;48.592;8.850;2024-03-06T14:06:59;18.00;;;8.85;;
3941;SDS011;1985;48.592;8.850;2024-03-06T14:09:25;22.20;;;9.40;;
3941;SDS011;1985;48.592;8.850;2024-03-06T14:11:52;22.00;;;9.63;;
3941;SDS011;1985;48.592;8.850;2024-03-06T14:14:18;21.27;;;9.45;;
3941;SDS011;1985;48.592;8.850;2024-03-06T14:16:44;19.98;;;9.30;;
3941;SDS011;1985;48.592;8.850;2024-03-06T14:19:10;18.23;;;8.80;;
3941;SDS011;1985;48.592;8.850;2024-03-06T14:21:36;19.10;;;9.70;;
3941;SDS011;1985;48.592;8.850;2024-03-06T14:24:02;18.73;;;9.85;;
3941;SDS011;1985;48.592;8.850;2024-03-06T14:26:30;22.45;;;10.48;;
3941;SDS011;1985;48.592;8.850;2024-03-06T14:28:56;19.25;;;9.10;;
3941;SDS011;1985;48.592;8.850;2024-03-06T14:31:22;21.75;;;10.98;;
3941;SDS011;1985;48.592;8.850;2024-03-06T14:33:48;23.47;;;10.67;;
3941;SDS011;1985;48.592;8.850;2024-03-06T14:36:15;21.97;;;9.80;;
3941;SDS011;1985;48.592;8.850;2024-03-06T14:38:43;20.92;;;9.23;;
3941;SDS011;1985;48.592;8.850;2024-03-06T14:41:10;21.05;;;10.52;;
3941;SDS011;1985;48.592;8.850;2024-03-06T14:43:36;20.00;;;9.70;;
3941;SDS011;1985;48.592;8.850;2024-03-06T14:46:05;19.85;;;9.57;;
3941;SDS011;1985;48.592;8.850;2024-03-06T14:48:31;20.98;;;9.60;;
3941;SDS011;1985;48.592;8.850;2024-03-06T14:50:59;21.70;;;10.23;;
3941;SDS011;1985;48.592;8.850;2024-03-06T14:53:25;19.85;;;9.07;;
3941;SDS011;1985;48.592;8.850;2024-03-06T14:55:50;20.83;;;9.70;;
3941;SDS011;1985;48.592;8.850;2024-03-06T14:58:16;21.53;;;9.20;;
3941;SDS011;1985;48.592;8.850;2024-03-06T15:00:42;18.75;;;9.10;;
3941;SDS011;1985;48.592;8.850;2024-03-06T15:03:07;20.63;;;9.25;;
3941;SDS011;1985;48.592;8.850;2024-03-06T15:05:34;21.73;;;10.07;;
3941;SDS011;1985;48.592;8.850;2024-03-06T15:08:00;19.85;;;8.82;;
3941;SDS011;1985;48.592;8.850;2024-03-06T15:10:25;24.08;;;9.48;;
3941;SDS011;1985;48.592;8.850;2024-03-06T15:12:51;21.47;;;9.00;;
3941;SDS011;1985;48.592;8.850;2024-03-06T15:15:17;20.52;;;8.90;;
3941;SDS011;1985;48.592;8.850;2024-03-06T15:17:42;20.02;;;9.20;;
3941;SDS011;1985;48.592;8.850;2024-03-06T15:20:11;19.13;;;9.70;;
3941;SDS011;1985;48.592;8.850;2024-03-06T15:22:37;19.38;;;9.35;;